createdAt,value
2023-01-09T00:02:25.890Z,17.08
2023-01-09T00:04:54.748Z,16.99
2023-01-09T00:07:22.207Z,18.05
2023-01-09T00:09:50.486Z,20.05
2023-01-09T00:12:18.071Z,20.38
2023-01-09T00:14:45.626Z,19.48
2023-01-09T00:17:13.033Z,17.42
2023-01-09T00:19:40.709Z,19.18
2023-01-09T00:22:09.706Z,19.34
2023-01-09T00:24:37.417Z,18.22
2023-01-09T00:27:05.973Z,19.46
2023-01-09T00:29:33.542Z,19.66
2023-01-09T00:32:01.063Z,18.82
2023-01-09T00:34:29.069Z,20.34
2023-01-09T00:36:57.054Z,20.17
2023-01-09T00:39:25.963Z,19.30
2023-01-09T00:41:56.394Z,20.46
2023-01-09T00:44:25.961Z,18.90
2023-01-09T00:46:56.702Z,18.68
2023-01-09T00:49:24.851Z,18.09
2023-01-09T00:51:55.175Z,18.49
2023-01-09T00:54:23.590Z,19.48
2023-01-09T00:56:52.495Z,18.63
2023-01-09T00:59:19.966Z,18.10
2023-01-09T01:01:47.556Z,18.29
2023-01-09T01:04:15.116Z,17.70
2023-01-09T01:06:42.589Z,18.84
2023-01-09T01:09:10.092Z,16.88
2023-01-09T01:11:37.576Z,18.21
2023-01-09T01:14:06.448Z,18.39
2023-01-09T01:16:33.984Z,19.06
2023-01-09T01:19:01.476Z,18.09
2023-01-09T01:21:28.928Z,18.70
2023-01-09T01:23:56.366Z,18.34
2023-01-09T01:26:24.408Z,17.21
2023-01-09T01:28:51.870Z,18.21
2023-01-09T01:31:21.289Z,19.72
2023-01-09T01:33:48.791Z,18.22
2023-01-09T01:36:16.225Z,18.55
2023-01-09T01:38:44.509Z,19.82
2023-01-09T01:41:11.955Z,19.25
2023-01-09T01:43:52.860Z,17.19
2023-01-09T01:46:22.093Z,16.84
2023-01-09T01:48:54.365Z,17.98
2023-01-09T01:51:25.107Z,17.58
2023-01-09T01:53:59.643Z,16.91
2023-01-09T01:56:30.519Z,16.83
2023-01-09T01:59:03.522Z,17.00
2023-01-09T02:01:33.003Z,17.60
2023-01-09T02:04:02.451Z,17.11
2023-01-09T02:06:31.060Z,16.93
2023-01-09T02:08:58.724Z,17.29
2023-01-09T02:11:27.264Z,16.78
2023-01-09T02:13:54.768Z,16.33
2023-01-09T02:16:44.623Z,16.86
2023-01-09T02:19:35.554Z,16.09
2023-01-09T02:22:12.835Z,17.31
2023-01-09T02:25:08.482Z,16.81
2023-01-09T02:28:08.883Z,16.74
2023-01-09T02:30:43.979Z,15.59
2023-01-09T02:33:42.633Z,16.65
2023-01-09T02:36:21.722Z,15.88
2023-01-09T02:38:59.980Z,16.82
2023-01-09T02:41:33.435Z,15.49
2023-01-09T02:44:16.314Z,15.45
2023-01-09T02:46:45.285Z,16.29
2023-01-09T02:49:13.809Z,16.01
2023-01-09T02:51:49.972Z,16.05
2023-01-09T02:54:29.556Z,15.08
2023-01-09T02:57:11.801Z,15.99
2023-01-09T02:59:54.028Z,14.51
2023-01-09T03:02:39.244Z,15.05
2023-01-09T03:05:13.809Z,14.39
2023-01-09T03:07:45.699Z,14.63
2023-01-09T03:10:20.222Z,13.90
2023-01-09T03:12:52.720Z,14.18
2023-01-09T03:15:24.737Z,14.70
2023-01-09T03:17:55.924Z,14.56
2023-01-09T03:20:26.208Z,14.26
2023-01-09T03:22:55.047Z,14.83
2023-01-09T03:25:22.699Z,15.94
2023-01-09T03:27:54.123Z,15.22
2023-01-09T03:30:21.998Z,14.76
2023-01-09T03:32:50.129Z,15.82
2023-01-09T03:35:19.023Z,15.14
2023-01-09T03:37:46.819Z,15.18
2023-01-09T03:40:14.704Z,16.14
2023-01-09T03:42:42.295Z,15.91
2023-01-09T03:45:10.336Z,16.76
2023-01-09T03:47:37.815Z,15.81
2023-01-09T03:50:06.361Z,17.45
2023-01-09T03:52:35.366Z,17.44
2023-01-09T03:55:02.940Z,17.42
2023-01-09T03:57:30.420Z,18.01
2023-01-09T03:59:57.901Z,18.30
2023-01-09T04:02:25.415Z,17.60
2023-01-09T04:04:53.075Z,17.88
2023-01-09T04:07:20.492Z,17.97
2023-01-09T04:09:49.930Z,15.12
2023-01-09T04:12:17.546Z,16.77
2023-01-09T04:14:45.136Z,15.07
2023-01-09T04:17:12.626Z,15.60
2023-01-09T04:19:40.096Z,15.54
2023-01-09T04:22:08.397Z,16.41
2023-01-09T04:24:36.373Z,14.61
2023-01-09T04:27:05.393Z,15.29
2023-01-09T04:29:32.920Z,14.88
2023-01-09T04:32:00.495Z,15.29
2023-01-09T04:34:28.117Z,15.13
2023-01-09T04:36:55.737Z,15.21
2023-01-09T04:39:23.479Z,16.06
2023-01-09T04:41:51.016Z,15.36
2023-01-09T04:44:21.785Z,14.29
2023-01-09T04:46:49.666Z,14.19
2023-01-09T04:49:17.316Z,14.80
2023-01-09T04:51:44.838Z,14.83
2023-01-09T04:54:12.340Z,16.08
2023-01-09T04:56:40.220Z,15.18
2023-01-09T04:59:08.153Z,14.22
2023-01-09T05:01:37.496Z,15.02
2023-01-09T05:04:05.987Z,15.70
2023-01-09T05:06:33.618Z,15.78
2023-01-09T05:09:01.696Z,15.44
2023-01-09T05:11:29.401Z,15.33
2023-01-09T05:13:57.230Z,15.00
2023-01-09T05:16:24.984Z,14.37
2023-01-09T05:18:53.901Z,15.30
2023-01-09T05:21:21.586Z,15.21
2023-01-09T05:23:49.180Z,15.20
2023-01-09T05:26:16.690Z,14.71
2023-01-09T05:28:44.090Z,14.52
2023-01-09T05:31:11.699Z,16.01
2023-01-09T05:33:39.309Z,15.10
2023-01-09T05:36:09.493Z,15.55
2023-01-09T05:38:37.132Z,15.00
2023-01-09T05:41:04.788Z,15.21
2023-01-09T05:43:32.222Z,15.95
2023-01-09T05:45:59.787Z,15.89
2023-01-09T05:48:27.310Z,15.37
2023-01-09T05:50:54.923Z,15.10
2023-01-09T05:53:23.972Z,14.90
2023-01-09T05:55:51.889Z,16.23
2023-01-09T05:58:19.352Z,15.64
2023-01-09T06:00:46.920Z,15.65
2023-01-09T06:03:14.388Z,15.53
2023-01-09T06:05:41.913Z,16.31
2023-01-09T06:08:09.369Z,15.34
2023-01-09T06:10:38.353Z,15.51
2023-01-09T06:13:05.949Z,16.28
2023-01-09T06:15:33.344Z,16.13
2023-01-09T06:18:00.947Z,18.19
2023-01-09T06:20:28.688Z,17.89
2023-01-09T06:22:56.472Z,17.56
2023-01-09T06:25:24.150Z,16.53
2023-01-09T06:27:54.031Z,17.48
2023-01-09T06:30:21.935Z,16.77
2023-01-09T06:32:50.395Z,17.59
2023-01-09T06:35:18.788Z,17.67
2023-01-09T06:37:46.628Z,16.71
2023-01-09T06:40:15.338Z,20.65
2023-01-09T06:42:46.483Z,18.28
2023-01-09T06:45:16.773Z,16.80
2023-01-09T06:47:44.667Z,18.00
2023-01-09T06:50:12.984Z,17.41
2023-01-09T06:52:40.632Z,17.02
2023-01-09T06:55:09.455Z,16.47
2023-01-09T06:57:37.502Z,18.27
2023-01-09T07:00:06.138Z,17.38
2023-01-09T07:02:35.186Z,17.74
2023-01-09T07:05:03.005Z,16.97
2023-01-09T07:07:30.635Z,18.24
2023-01-09T07:09:58.231Z,17.36
2023-01-09T07:12:26.594Z,16.69
2023-01-09T07:14:56.180Z,17.08
2023-01-09T07:17:25.004Z,17.80
2023-01-09T07:19:54.112Z,17.87
2023-01-09T07:22:21.696Z,16.82
2023-01-09T07:24:49.213Z,17.01
2023-01-09T07:27:17.892Z,18.24
2023-01-09T07:29:45.824Z,16.35
2023-01-09T07:32:13.307Z,16.79
2023-01-09T07:34:41.020Z,17.61
2023-01-09T07:37:09.926Z,17.36
2023-01-09T07:39:37.473Z,17.16
2023-01-09T07:42:05.147Z,17.12
2023-01-09T07:44:33.283Z,17.09
2023-01-09T07:47:01.028Z,17.46
2023-01-09T07:49:28.479Z,19.82
2023-01-09T07:51:56.724Z,18.34
2023-01-09T07:54:25.806Z,16.96
2023-01-09T07:56:53.324Z,17.56
2023-01-09T07:59:21.627Z,17.16
2023-01-09T08:01:49.414Z,17.42
2023-01-09T08:04:17.138Z,18.13
2023-01-09T08:06:45.731Z,18.02
2023-01-09T08:09:13.864Z,19.25
2023-01-09T08:11:43.015Z,17.62
2023-01-09T08:14:11.503Z,17.56
2023-01-09T08:16:39.391Z,18.26
2023-01-09T08:19:06.957Z,17.84
2023-01-09T08:21:34.459Z,16.45
2023-01-09T08:24:02.488Z,16.60
2023-01-09T08:26:30.819Z,17.12
2023-01-09T08:29:00.230Z,17.75
2023-01-09T08:31:27.770Z,16.99
2023-01-09T08:33:55.392Z,17.64
2023-01-09T08:36:22.943Z,17.48
2023-01-09T08:38:50.646Z,17.35
2023-01-09T08:41:18.132Z,17.26
2023-01-09T08:43:45.706Z,16.65
2023-01-09T08:46:21.593Z,17.01
2023-01-09T08:48:49.467Z,16.96
2023-01-09T08:51:17.209Z,17.21
2023-01-09T08:53:44.798Z,16.74
2023-01-09T08:56:12.374Z,16.81
2023-01-09T08:58:39.939Z,16.96
2023-01-09T09:01:08.300Z,18.21
2023-01-09T09:03:37.708Z,17.65
2023-01-09T09:06:06.223Z,17.59
2023-01-09T09:08:33.648Z,17.99
2023-01-09T09:11:01.462Z,17.95
2023-01-09T09:13:29.178Z,18.29
2023-01-09T09:15:56.984Z,17.47
2023-01-09T09:18:24.671Z,17.65
2023-01-09T09:20:53.728Z,20.20
2023-01-09T09:23:21.289Z,17.40
2023-01-09T09:25:49.030Z,17.23
2023-01-09T09:28:16.724Z,16.71
2023-01-09T09:30:44.553Z,17.26
2023-01-09T09:33:12.581Z,17.31
2023-01-09T09:35:40.498Z,17.29
2023-01-09T09:38:11.072Z,17.69
2023-01-09T09:40:56.911Z,20.12
2023-01-09T09:43:54.137Z,17.12
2023-01-09T09:46:30.234Z,17.18
2023-01-09T09:49:02.812Z,16.83
2023-01-09T09:51:49.580Z,17.16
2023-01-09T09:54:24.208Z,17.31
2023-01-09T09:56:56.819Z,17.68
2023-01-09T09:59:27.714Z,17.47
2023-01-09T10:01:59.230Z,17.09
2023-01-09T10:04:31.048Z,17.71
2023-01-09T10:07:01.950Z,17.49
2023-01-09T10:09:40.996Z,17.96
2023-01-09T10:12:18.238Z,17.41
2023-01-09T10:14:45.915Z,18.07
2023-01-09T10:17:29.124Z,17.35
2023-01-09T10:20:20.301Z,17.77
2023-01-09T10:22:59.723Z,18.09
2023-01-09T10:25:37.199Z,17.62
2023-01-09T10:28:20.935Z,18.52
2023-01-09T10:30:52.574Z,17.57
2023-01-09T10:33:35.700Z,19.01
2023-01-09T10:36:40.508Z,18.44
2023-01-09T10:39:15.484Z,17.11
2023-01-09T10:41:54.715Z,17.31
2023-01-09T10:44:27.641Z,16.78
2023-01-09T10:46:56.525Z,17.62
2023-01-09T10:49:24.798Z,17.10
2023-01-09T10:51:59.429Z,17.72
2023-01-09T10:54:30.072Z,17.35
2023-01-09T10:57:06.309Z,17.36
2023-01-09T10:59:34.073Z,17.74
2023-01-09T11:02:02.038Z,17.89
2023-01-09T11:04:32.699Z,18.03
2023-01-09T11:07:03.500Z,18.37
2023-01-09T11:09:55.555Z,18.21
2023-01-09T11:12:26.451Z,17.84
2023-01-09T11:14:53.983Z,18.19
2023-01-09T11:17:27.279Z,18.01
2023-01-09T11:20:03.100Z,19.50
2023-01-09T11:22:43.342Z,19.23
2023-01-09T11:25:13.891Z,17.90
2023-01-09T11:27:43.400Z,19.20
2023-01-09T11:30:18.307Z,19.92
2023-01-09T11:32:47.519Z,19.01
2023-01-09T11:35:19.859Z,19.17
2023-01-09T11:37:49.887Z,18.97
2023-01-09T11:40:20.713Z,19.43
2023-01-09T11:43:14.570Z,19.00
2023-01-09T11:45:56.375Z,19.64
2023-01-09T11:48:40.949Z,18.80
2023-01-09T11:51:21.089Z,18.59
2023-01-09T11:54:01.255Z,19.38
2023-01-09T11:56:29.923Z,19.03
2023-01-09T11:58:59.555Z,19.44
2023-01-09T12:01:45.494Z,19.17
2023-01-09T12:04:21.333Z,20.25
2023-01-09T12:07:00.207Z,19.75
2023-01-09T12:09:37.320Z,19.31
2023-01-09T12:12:18.494Z,19.88
2023-01-09T12:15:10.025Z,18.86
2023-01-09T12:17:52.706Z,18.34
2023-01-09T12:20:45.933Z,19.29
2023-01-09T12:23:25.981Z,18.71
2023-01-09T12:26:05.888Z,18.75
2023-01-09T12:28:54.571Z,20.02
2023-01-09T12:31:40.078Z,19.21
2023-01-09T12:34:24.960Z,19.40
2023-01-09T12:37:02.820Z,19.03
2023-01-09T12:39:37.395Z,19.35
2023-01-09T12:42:29.259Z,19.56
2023-01-09T12:45:01.824Z,19.34
2023-01-09T12:47:45.200Z,19.09
2023-01-09T12:50:48.196Z,19.16
2023-01-09T12:53:21.496Z,19.16
2023-01-09T12:55:54.058Z,18.79
2023-01-09T12:58:31.079Z,18.27
2023-01-09T13:01:02.696Z,18.64
2023-01-09T13:03:37.440Z,18.33
2023-01-09T13:06:11.356Z,18.30
2023-01-09T13:08:43.478Z,18.74
2023-01-09T13:11:20.442Z,18.98
2023-01-09T13:13:54.702Z,17.72
2023-01-09T13:16:28.695Z,19.14
2023-01-09T13:19:03.836Z,18.34
2023-01-09T13:21:31.976Z,19.31
2023-01-09T13:24:07.308Z,17.92
2023-01-09T13:26:40.368Z,17.47
2023-01-09T13:29:12.971Z,17.67
2023-01-09T13:31:57.014Z,17.37
2023-01-09T13:34:29.681Z,18.35
2023-01-09T13:36:59.105Z,17.56
2023-01-09T13:39:29.375Z,18.22
2023-01-09T13:41:59.976Z,17.48
2023-01-09T13:44:29.034Z,17.97
2023-01-09T13:46:58.766Z,18.44
2023-01-09T13:49:30.923Z,17.63
2023-01-09T13:52:01.247Z,18.32
2023-01-09T13:55:03.654Z,17.79
2023-01-09T13:57:34.101Z,17.45
2023-01-09T14:00:39.232Z,18.05
2023-01-09T14:03:19.975Z,17.28
2023-01-09T14:06:11.538Z,17.07
2023-01-09T14:08:40.661Z,17.03
2023-01-09T14:11:08.967Z,17.67
2023-01-09T14:13:41.498Z,17.80
2023-01-09T14:16:17.946Z,17.75
2023-01-09T14:18:50.915Z,17.93
2023-01-09T14:21:20.895Z,17.64
2023-01-09T14:23:59.232Z,17.86
2023-01-09T14:26:45.263Z,17.75
2023-01-09T14:29:44.699Z,18.17
2023-01-09T14:32:43.795Z,17.97
2023-01-09T14:35:16.631Z,17.35
2023-01-09T14:37:55.423Z,17.62
2023-01-09T14:40:24.276Z,17.12
2023-01-09T14:42:54.759Z,17.16
2023-01-09T14:45:24.405Z,18.19
2023-01-09T14:47:57.160Z,17.35
2023-01-09T14:50:32.459Z,17.74
2023-01-09T14:53:05.391Z,17.52
2023-01-09T14:55:40.416Z,17.20
2023-01-09T14:58:12.683Z,17.84
2023-01-09T15:00:49.639Z,17.94
2023-01-09T15:03:17.585Z,17.11
2023-01-09T15:05:46.651Z,17.78
2023-01-09T15:08:20.060Z,18.10
2023-01-09T15:10:51.176Z,16.86
2023-01-09T15:13:23.694Z,15.13
2023-01-09T15:15:51.455Z,16.31
2023-01-09T15:18:23.454Z,15.98
2023-01-09T15:20:59.189Z,15.88
2023-01-09T15:23:30.053Z,16.05
2023-01-09T15:25:58.369Z,16.45
2023-01-09T15:28:29.640Z,16.71
2023-01-09T15:31:03.078Z,16.39
2023-01-09T15:33:31.501Z,17.06
2023-01-09T15:35:59.591Z,17.69
2023-01-09T15:38:31.471Z,17.53
2023-01-09T15:41:01.213Z,16.92
2023-01-09T15:43:31.307Z,17.78
2023-01-09T15:45:59.355Z,17.19
2023-01-09T15:48:28.927Z,17.11
2023-01-09T15:51:01.390Z,17.07
2023-01-09T15:53:30.821Z,16.64
2023-01-09T15:56:07.741Z,17.08
2023-01-09T15:58:37.933Z,17.77
2023-01-09T16:01:08.380Z,17.47
2023-01-09T16:03:37.378Z,17.00
2023-01-09T16:06:09.351Z,17.16
2023-01-09T16:08:41.631Z,16.52
2023-01-09T16:11:20.752Z,16.46
2023-01-09T16:13:48.563Z,16.55
2023-01-09T16:16:25.659Z,16.47
2023-01-09T16:18:54.516Z,16.21
2023-01-09T16:21:25.293Z,16.89
2023-01-09T16:24:25.461Z,15.99
2023-01-09T16:27:11.083Z,16.33
2023-01-09T16:29:45.548Z,15.94
2023-01-09T16:32:19.899Z,16.85
2023-01-09T16:34:52.337Z,17.62
2023-01-09T16:37:21.081Z,16.99
2023-01-09T16:40:25.925Z,16.76
2023-01-09T16:42:55.827Z,16.64
2023-01-09T16:45:25.803Z,16.58
2023-01-09T16:47:53.375Z,16.85
2023-01-09T16:50:21.145Z,17.10
2023-01-09T16:52:48.764Z,16.74
2023-01-09T16:55:18.176Z,17.82
2023-01-09T16:57:46.064Z,16.73
2023-01-09T17:00:16.355Z,17.16
2023-01-09T17:02:44.514Z,17.26
2023-01-09T17:05:13.208Z,17.00
2023-01-09T17:07:41.288Z,17.28
2023-01-09T17:10:21.690Z,16.97
2023-01-09T17:12:50.016Z,16.91
2023-01-09T17:15:19.258Z,16.49
2023-01-09T17:17:46.936Z,16.85
2023-01-09T17:20:16.456Z,17.11
2023-01-09T17:22:44.413Z,17.40
2023-01-09T17:25:15.642Z,16.62
2023-01-09T17:27:45.957Z,17.28
2023-01-09T17:30:18.742Z,17.73
2023-01-09T17:32:46.698Z,17.18
2023-01-09T17:35:14.673Z,17.70
2023-01-09T17:37:42.713Z,16.29
2023-01-09T17:40:18.063Z,16.56
2023-01-09T17:42:47.115Z,17.16
2023-01-09T17:45:15.608Z,17.31
2023-01-09T17:47:43.112Z,17.21
2023-01-09T17:50:18.210Z,17.25
2023-01-09T17:52:45.912Z,16.80
2023-01-09T17:55:13.503Z,16.70
2023-01-09T17:57:43.203Z,17.31
2023-01-09T18:00:24.343Z,17.39
2023-01-09T18:02:51.947Z,17.27
2023-01-09T18:05:19.746Z,17.42
2023-01-09T18:07:47.641Z,16.74
2023-01-09T18:10:17.034Z,17.64
2023-01-09T18:12:48.254Z,17.00
2023-01-09T18:15:17.722Z,16.81
2023-01-09T18:17:46.525Z,17.44
2023-01-09T18:20:15.063Z,17.68
2023-01-09T18:22:46.199Z,16.75
2023-01-09T18:25:13.766Z,17.86
2023-01-09T18:27:42.210Z,17.16
2023-01-09T18:30:12.496Z,16.90
2023-01-09T18:32:41.857Z,17.06
2023-01-09T18:35:10.077Z,17.40
2023-01-09T18:37:38.155Z,17.81
2023-01-09T18:40:06.764Z,17.32
2023-01-09T18:42:34.282Z,16.97
2023-01-09T18:45:01.750Z,17.55
2023-01-09T18:47:29.338Z,17.33
2023-01-09T18:49:58.433Z,17.42
2023-01-09T18:52:25.985Z,17.54
2023-01-09T18:54:53.585Z,17.40
2023-01-09T18:57:21.337Z,17.56
2023-01-09T18:59:48.917Z,17.36
2023-01-09T19:02:20.213Z,16.94
2023-01-09T19:04:47.890Z,17.57
2023-01-09T19:07:17.336Z,17.88
2023-01-09T19:09:45.497Z,17.88
2023-01-09T19:12:13.254Z,16.70
2023-01-09T19:14:40.823Z,17.38
2023-01-09T19:17:08.384Z,18.03
2023-01-09T19:19:35.923Z,17.36
2023-01-09T19:22:03.352Z,17.15
2023-01-09T19:24:32.349Z,17.24
2023-01-09T19:27:00.663Z,17.66
2023-01-09T19:29:28.417Z,17.92
2023-01-09T19:31:56.033Z,17.65
2023-01-09T19:34:23.612Z,17.40
2023-01-09T19:36:51.600Z,17.22
2023-01-09T19:39:19.229Z,17.79
2023-01-09T19:41:48.128Z,16.93
2023-01-09T19:44:15.606Z,17.45
2023-01-09T19:46:43.035Z,18.79
2023-01-09T19:49:10.612Z,17.97
2023-01-09T19:51:38.125Z,17.82
2023-01-09T19:54:08.731Z,17.67
2023-01-09T19:56:36.409Z,18.17
2023-01-09T19:59:05.799Z,17.93
2023-01-09T20:01:35.406Z,16.97
2023-01-09T20:04:05.547Z,17.63
2023-01-09T20:06:33.581Z,17.47
2023-01-09T20:09:02.549Z,17.12
2023-01-09T20:11:31.615Z,17.09
2023-01-09T20:13:59.485Z,17.33
2023-01-09T20:16:30.257Z,16.33
2023-01-09T20:18:59.769Z,17.10
2023-01-09T20:21:28.716Z,17.71
2023-01-09T20:23:58.903Z,16.93
2023-01-09T20:26:27.652Z,17.36
2023-01-09T20:28:55.689Z,16.89
2023-01-09T20:31:24.208Z,16.81
2023-01-09T20:33:53.131Z,17.05
2023-01-09T20:36:21.014Z,16.96
2023-01-09T20:38:48.739Z,17.77
2023-01-09T20:41:17.259Z,17.69
2023-01-09T20:43:44.683Z,17.35
2023-01-09T20:46:12.184Z,17.74
2023-01-09T20:48:39.651Z,17.59
2023-01-09T20:51:09.033Z,16.75
2023-01-09T20:53:36.530Z,17.26
2023-01-09T20:56:06.269Z,16.81
2023-01-09T20:58:33.515Z,16.98
2023-01-09T21:01:06.204Z,16.36
2023-01-09T21:03:33.913Z,17.63
2023-01-09T21:06:04.751Z,17.67
2023-01-09T21:08:34.440Z,18.15
2023-01-09T21:11:02.281Z,17.63
2023-01-09T21:13:30.098Z,17.12
2023-01-09T21:16:01.362Z,17.10
2023-01-09T21:18:28.945Z,17.65
2023-01-09T21:20:56.763Z,17.38
2023-01-09T21:23:24.524Z,17.50
2023-01-09T21:25:53.474Z,16.89
2023-01-09T21:28:20.911Z,17.45
2023-01-09T21:30:48.584Z,17.47
2023-01-09T21:33:16.841Z,17.13
2023-01-09T21:35:44.295Z,17.46
2023-01-09T21:38:12.055Z,17.48
2023-01-09T21:40:39.600Z,17.05
2023-01-09T21:43:10.471Z,18.68
2023-01-09T21:45:38.568Z,17.37
2023-01-09T21:48:07.033Z,17.75
2023-01-09T21:50:35.092Z,17.48
2023-01-09T21:53:02.832Z,18.41
2023-01-09T21:55:30.430Z,17.46
2023-01-09T21:57:58.185Z,17.09
2023-01-09T22:00:28.109Z,16.85
2023-01-09T22:02:55.936Z,16.65
2023-01-09T22:05:23.611Z,16.54
2023-01-09T22:07:51.179Z,16.78
2023-01-09T22:10:18.961Z,18.12
2023-01-09T22:12:50.388Z,17.09
2023-01-09T22:15:17.831Z,17.15
2023-01-09T22:17:46.742Z,16.78
2023-01-09T22:20:14.420Z,17.36
2023-01-09T22:22:41.976Z,17.38
2023-01-09T22:25:10.144Z,17.03
2023-01-09T22:27:37.616Z,17.74
2023-01-09T22:30:06.019Z,17.53
2023-01-09T22:32:35.093Z,17.62
2023-01-09T22:35:05.784Z,19.13
2023-01-09T22:37:34.240Z,18.46
2023-01-09T22:40:02.091Z,18.00
2023-01-09T22:42:29.532Z,18.49
2023-01-09T22:44:56.953Z,18.31
2023-01-09T22:47:24.391Z,19.37
2023-01-09T22:49:53.359Z,17.74
2023-01-09T22:52:23.226Z,18.62
2023-01-09T22:54:50.735Z,18.26
2023-01-09T22:57:18.174Z,17.99
2023-01-09T22:59:45.613Z,18.29
2023-01-09T23:02:13.189Z,17.65
2023-01-09T23:04:40.819Z,17.63
2023-01-09T23:07:08.260Z,18.31
2023-01-09T23:09:37.483Z,17.32
2023-01-09T23:12:05.814Z,16.55
2023-01-09T23:14:35.617Z,17.49
2023-01-09T23:17:02.706Z,17.99
2023-01-09T23:19:30.654Z,17.93
2023-01-09T23:21:58.216Z,18.43
2023-01-09T23:24:27.933Z,17.57
2023-01-09T23:26:58.079Z,18.13
2023-01-09T23:29:26.338Z,17.60
2023-01-09T23:31:54.034Z,18.22
2023-01-09T23:34:22.937Z,17.89
2023-01-09T23:36:51.120Z,16.93
2023-01-09T23:39:18.682Z,17.51
2023-01-09T23:41:46.148Z,17.34
2023-01-09T23:44:15.078Z,17.61
2023-01-09T23:46:42.505Z,17.27
2023-01-09T23:49:10.129Z,17.18
2023-01-09T23:51:37.535Z,17.90
2023-01-09T23:54:06.962Z,17.79
2023-01-09T23:56:34.815Z,17.99
2023-01-09T23:59:04.744Z,17.19
